Time;durP1;ratioP1;P1;durP2;ratioP2;P2;SDS_P1;SDS_P2;PMS_P1;PMS_P2;Temp;Humidity;BMP_temperature;BMP_pressure;BME280_temperature;BME280_humidity;BME280_pressure;Samples;Min_cycle;Max_cycle;Signal;HPM_P1;HPM_P2
2023/05/11 00:00:34;;;;;;;0.43;0.37;;;11.60;99.90;;;;;;5073798;28;20461;-84
2023/05/11 00:03:01;;;;;;;0.40;0.40;;;11.60;99.90;;;;;;5073236;28;20493;-83
2023/05/11 00:05:27;;;;;;;0.40;0.30;;;11.70;99.90;;;;;;5073514;28;20508;-83
2023/05/11 00:07:54;;;;;;;0.60;0.40;;;11.60;99.90;;;;;;5073432;28;20851;-83
2023/05/11 00:10:21;;;;;;;0.30;0.20;;;11.70;99.90;;;;;;5073047;28;20449;-83
2023/05/11 00:12:48;;;;;;;0.60;0.30;;;11.60;99.90;;;;;;5073237;28;20482;-84
2023/05/11 00:15:14;;;;;;;0.30;0.30;;;11.60;99.90;;;;;;5073407;28;20434;-83
2023/05/11 00:17:42;;;;;;;0.30;0.30;;;11.60;99.90;;;;;;5073628;28;20463;-83
2023/05/11 00:20:10;;;;;;;0.40;0.40;;;11.60;99.90;;;;;;5073330;28;20532;-84
2023/05/11 00:22:37;;;;;;;0.60;0.30;;;11.60;99.90;;;;;;5072975;28;20469;-84
2023/05/11 00:25:05;;;;;;;0.40;0.40;;;11.60;99.90;;;;;;5072994;28;20957;-83
2023/05/11 00:27:32;;;;;;;0.90;0.40;;;11.60;99.90;;;;;;5073209;28;20517;-83
2023/05/11 00:29:58;;;;;;;0.40;0.33;;;11.60;99.90;;;;;;5072984;28;20962;-83
2023/05/11 00:32:25;;;;;;;0.50;0.40;;;11.60;99.90;;;;;;5073156;28;20466;-83
2023/05/11 00:34:53;;;;;;;0.40;0.37;;;11.60;99.90;;;;;;5073238;28;20451;-83
2023/05/11 00:37:20;;;;;;;0.30;0.30;;;11.50;99.90;;;;;;5073271;28;20442;-84
2023/05/11 00:39:47;;;;;;;0.40;0.30;;;11.50;99.90;;;;;;5073371;28;20461;-84
2023/05/11 00:42:13;;;;;;;0.53;0.47;;;11.60;99.90;;;;;;5072923;28;20477;-83
2023/05/11 00:44:40;;;;;;;0.37;0.37;;;11.50;99.90;;;;;;5073192;28;20453;-83
2023/05/11 00:47:07;;;;;;;0.30;0.30;;;11.50;99.90;;;;;;5073087;28;20457;-84
2023/05/11 00:49:34;;;;;;;0.40;0.37;;;11.60;99.90;;;;;;5072795;28;20928;-84
2023/05/11 00:52:02;;;;;;;0.30;0.30;;;11.60;99.90;;;;;;5072980;28;20952;-84
2023/05/11 00:54:29;;;;;;;0.30;0.30;;;11.50;99.90;;;;;;5073066;28;20876;-84
2023/05/11 00:56:56;;;;;;;0.50;0.40;;;11.50;99.90;;;;;;5073040;28;20484;-84
2023/05/11 00:59:23;;;;;;;0.40;0.40;;;11.60;99.90;;;;;;5073089;28;20445;-84
2023/05/11 01:01:50;;;;;;;0.30;0.30;;;11.50;99.90;;;;;;5072634;28;20492;-84
2023/05/11 01:04:17;;;;;;;0.40;0.30;;;11.60;99.90;;;;;;5072942;28;20464;-84
2023/05/11 01:06:51;;;;;;;0.90;0.40;;;11.60;99.90;;;;;;5072957;28;20458;-84
2023/05/11 01:09:27;;;;;;;0.40;0.30;;;11.60;99.90;;;;;;5072910;28;20468;-84
2023/05/11 01:12:07;;;;;;;0.30;0.30;;;11.60;99.90;;;;;;5072847;28;20437;-84
2023/05/11 01:14:39;;;;;;;0.40;0.40;;;11.60;99.90;;;;;;5072933;28;20430;-83
2023/05/11 01:17:10;;;;;;;0.40;0.40;;;11.60;99.90;;;;;;5072876;28;20445;-84
2023/05/11 01:19:42;;;;;;;0.40;0.30;;;11.60;99.90;;;;;;5072794;28;20959;-84
2023/05/11 01:22:27;;;;;;;0.60;0.60;;;11.60;99.90;;;;;;5073632;28;20469;-84
2023/05/11 01:25:11;;;;;;;0.80;0.53;;;11.60;99.90;;;;;;5076225;28;20429;-83
2023/05/11 01:28:10;;;;;;;0.40;0.30;;;11.50;99.90;;;;;;5076080;28;20522;-84
2023/05/11 01:30:45;;;;;;;1.43;0.40;;;11.60;99.90;;;;;;5055273;28;20944;-84
2023/05/11 01:33:14;;;;;;;0.70;0.37;;;11.50;99.90;;;;;;5076264;28;20476;-84
2023/05/11 01:35:45;;;;;;;0.50;0.40;;;11.50;99.90;;;;;;5076326;28;20445;-83
2023/05/11 01:38:15;;;;;;;6.20;0.50;;;11.60;99.90;;;;;;5076623;28;20417;-84
2023/05/11 01:40:44;;;;;;;0.40;0.30;;;11.60;99.90;;;;;;5076208;28;20445;-84
2023/05/11 01:43:15;;;;;;;0.30;0.30;;;11.60;99.90;;;;;;5076299;28;20465;-84
2023/05/11 01:45:46;;;;;;;0.40;0.30;;;11.60;99.90;;;;;;5076122;28;20432;-84
2023/05/11 01:48:18;;;;;;;0.40;0.40;;;11.60;99.90;;;;;;5076040;28;20472;-84
2023/05/11 01:50:47;;;;;;;0.30;0.30;;;11.60;99.90;;;;;;5076244;28;20434;-84
2023/05/11 01:53:16;;;;;;;0.40;0.40;;;11.60;99.90;;;;;;5075862;28;20469;-84
2023/05/11 01:55:45;;;;;;;0.50;0.33;;;11.60;99.90;;;;;;5075910;28;20445;-84
2023/05/11 01:58:14;;;;;;;0.40;0.30;;;11.60;99.90;;;;;;5075830;28;20441;-83
2023/05/11 02:00:43;;;;;;;0.30;0.30;;;11.50;99.90;;;;;;5075740;28;20446;-84
2023/05/11 02:03:10;;;;;;;0.37;0.37;;;11.50;99.90;;;;;;5075292;28;20481;-83
2023/05/11 02:05:38;;;;;;;0.40;0.40;;;11.50;99.90;;;;;;5075436;28;20441;-84
2023/05/11 02:08:06;;;;;;;0.70;0.40;;;11.60;99.90;;;;;;5075563;28;20487;-84
2023/05/11 02:10:35;;;;;;;0.30;0.30;;;11.50;99.90;;;;;;5075575;28;20453;-84
2023/05/11 02:13:04;;;;;;;0.50;0.37;;;11.50;99.90;;;;;;5075495;28;20465;-84
2023/05/11 02:15:32;;;;;;;0.40;0.30;;;11.50;99.90;;;;;;5075351;28;20453;-84
2023/05/11 02:18:01;;;;;;;0.30;0.30;;;11.50;99.90;;;;;;5075490;28;20472;-84
2023/05/11 02:20:28;;;;;;;0.40;0.30;;;11.50;99.90;;;;;;5075420;28;20461;-83
2023/05/11 02:22:56;;;;;;;0.40;0.40;;;11.60;99.90;;;;;;5075346;28;20478;-84
2023/05/11 02:25:24;;;;;;;0.60;0.50;;;11.60;99.90;;;;;;5075373;28;20442;-84
2023/05/11 02:27:51;;;;;;;0.40;0.30;;;11.60;99.90;;;;;;5074950;28;20448;-84
2023/05/11 02:30:18;;;;;;;0.40;0.40;;;11.50;99.90;;;;;;5075229;28;20449;-84
2023/05/11 02:32:51;;;;;;;0.40;0.30;;;11.50;99.90;;;;;;5075090;28;20474;-84
2023/05/11 02:35:23;;;;;;;0.40;0.30;;;11.40;99.90;;;;;;5074585;28;20521;-84
2023/05/11 02:37:55;;;;;;;0.40;0.30;;;11.40;99.90;;;;;;5075213;28;20430;-84
2023/05/11 02:40:30;;;;;;;0.40;0.30;;;11.40;99.90;;;;;;5075106;28;20438;-84
2023/05/11 02:43:06;;;;;;;0.50;0.30;;;11.40;99.90;;;;;;5074989;28;20790;-83
2023/05/11 02:45:35;;;;;;;0.60;0.43;;;11.50;99.90;;;;;;5075011;28;20436;-84
2023/05/11 02:48:08;;;;;;;0.50;0.30;;;11.40;99.90;;;;;;5074879;28;20489;-84
2023/05/11 02:50:40;;;;;;;0.50;0.50;;;11.40;99.90;;;;;;5074858;28;20457;-84
2023/05/11 02:53:14;;;;;;;0.70;0.40;;;11.40;99.90;;;;;;5074541;28;20825;-84
2023/05/11 02:55:41;;;;;;;4.23;0.90;;;11.40;99.90;;;;;;5074762;28;20433;-84
2023/05/11 02:58:09;;;;;;;1.03;0.63;;;11.30;99.90;;;;;;5074719;28;20434;-83
2023/05/11 03:00:35;;;;;;;0.50;0.40;;;11.30;99.90;;;;;;5074989;28;20823;-84
2023/05/11 03:03:03;;;;;;;0.40;0.30;;;11.30;99.90;;;;;;5074389;28;20476;-82
2023/05/11 03:05:30;;;;;;;0.40;0.40;;;11.30;99.90;;;;;;5074150;28;20835;-83
2023/05/11 03:07:59;;;;;;;0.40;0.40;;;11.30;99.90;;;;;;5074809;28;20458;-83
2023/05/11 03:10:27;;;;;;;0.40;0.40;;;11.20;99.90;;;;;;5074388;28;20450;-83
2023/05/11 03:12:55;;;;;;;0.40;0.40;;;11.20;99.90;;;;;;5074283;28;20519;-83
2023/05/11 03:15:22;;;;;;;1.90;0.40;;;11.20;99.90;;;;;;5074063;28;20958;-83
2023/05/11 03:17:50;;;;;;;0.40;0.30;;;11.20;99.90;;;;;;5074655;28;20457;-83
2023/05/11 03:20:19;;;;;;;0.50;0.43;;;11.20;99.90;;;;;;5074255;28;20468;-84
2023/05/11 03:22:46;;;;;;;0.37;0.37;;;11.20;99.90;;;;;;5074146;28;20469;-84
2023/05/11 03:25:15;;;;;;;0.60;0.47;;;11.10;99.90;;;;;;5074395;28;20437;-83
2023/05/11 03:27:43;;;;;;;0.43;0.33;;;11.10;99.90;;;;;;5074131;28;20446;-83
2023/05/11 03:30:13;;;;;;;0.40;0.40;;;11.10;99.90;;;;;;5073986;28;20481;-83
2023/05/11 03:32:40;;;;;;;0.40;0.40;;;11.10;99.90;;;;;;5073958;28;20476;-83
2023/05/11 03:35:08;;;;;;;0.40;0.40;;;11.20;99.90;;;;;;5073983;28;20460;-83
2023/05/11 03:37:37;;;;;;;0.50;0.50;;;11.10;99.90;;;;;;5073897;28;20445;-83
2023/05/11 03:40:06;;;;;;;0.50;0.40;;;11.10;99.90;;;;;;5073577;28;20840;-83
2023/05/11 03:42:36;;;;;;;0.37;0.33;;;11.10;99.90;;;;;;5073489;28;20465;-84
2023/05/11 03:45:05;;;;;;;0.97;0.63;;;11.10;99.90;;;;;;5073710;28;20446;-83
2023/05/11 03:47:34;;;;;;;0.60;0.40;;;11.10;99.90;;;;;;5073320;28;20449;-83
2023/05/11 03:50:02;;;;;;;0.60;0.50;;;11.10;99.90;;;;;;5073677;28;20492;-84
2023/05/11 03:52:29;;;;;;;1.13;0.50;;;11.10;99.90;;;;;;5074147;28;20842;-84
2023/05/11 03:54:56;;;;;;;1.07;0.50;;;11.10;99.90;;;;;;5073680;28;20449;-84
2023/05/11 03:57:25;;;;;;;0.40;0.30;;;11.10;99.90;;;;;;5073690;28;20894;-84
2023/05/11 03:59:53;;;;;;;0.50;0.40;;;11.10;99.90;;;;;;5073556;28;20453;-84
2023/05/11 04:02:23;;;;;;;0.37;0.30;;;11.10;99.90;;;;;;5073160;28;20853;-84
2023/05/11 04:04:51;;;;;;;0.40;0.40;;;11.10;99.90;;;;;;5073228;28;20450;-84
2023/05/11 04:07:17;;;;;;;0.30;0.30;;;11.00;99.90;;;;;;5073451;28;20885;-84
2023/05/11 04:09:44;;;;;;;0.70;0.40;;;11.00;99.90;;;;;;5073996;28;20485;-84
2023/05/11 04:12:11;;;;;;;0.30;0.30;;;11.00;99.90;;;;;;5074323;28;20497;-91
2023/05/11 04:14:38;;;;;;;1.77;0.60;;;11.10;99.90;;;;;;5074861;28;20449;-91
2023/05/11 04:17:06;;;;;;;2.13;0.37;;;11.20;99.90;;;;;;5074576;28;20456;-91
2023/05/11 04:19:32;;;;;;;0.30;0.30;;;11.20;99.90;;;;;;5075158;28;20445;-91
2023/05/11 04:21:59;;;;;;;0.87;0.47;;;11.20;99.90;;;;;;5075221;28;20440;-91
2023/05/11 04:24:26;;;;;;;0.70;0.50;;;11.20;99.90;;;;;;5076307;28;20451;-91
2023/05/11 04:26:56;;;;;;;0.40;0.30;;;11.10;99.90;;;;;;5076899;28;20450;-91
2023/05/11 04:29:22;;;;;;;0.40;0.30;;;11.20;99.90;;;;;;5076128;28;21011;-91
2023/05/11 04:31:49;;;;;;;0.50;0.40;;;11.20;99.90;;;;;;5075696;28;20448;-91
2023/05/11 04:34:17;;;;;;;0.40;0.40;;;11.20;99.90;;;;;;5076003;28;20482;-91
2023/05/11 04:36:47;;;;;;;0.37;0.30;;;11.20;99.90;;;;;;5076168;28;20446;-91
2023/05/11 04:39:14;;;;;;;0.77;0.50;;;11.20;99.90;;;;;;5075393;28;20494;-91
2023/05/11 04:41:41;;;;;;;0.40;0.30;;;11.20;99.90;;;;;;5074711;28;20477;-91
2023/05/11 04:44:08;;;;;;;0.70;0.70;;;11.20;99.90;;;;;;5074104;28;20458;-91
2023/05/11 04:46:35;;;;;;;1.00;0.50;;;11.20;99.90;;;;;;5074454;28;20441;-91
2023/05/11 04:49:03;;;;;;;0.40;0.40;;;11.20;99.90;;;;;;5074326;28;20477;-91
2023/05/11 04:51:31;;;;;;;0.50;0.50;;;11.20;99.90;;;;;;5074502;28;20444;-91
2023/05/11 04:53:57;;;;;;;1.97;0.50;;;11.20;99.90;;;;;;5074344;28;20475;-91
2023/05/11 04:56:25;;;;;;;0.47;0.47;;;11.20;99.90;;;;;;5074157;28;20449;-92
2023/05/11 04:58:51;;;;;;;0.40;0.30;;;11.10;99.90;;;;;;5078575;28;20441;-92
2023/05/11 05:01:18;;;;;;;0.40;0.40;;;11.20;99.90;;;;;;5078245;28;20484;-91
2023/05/11 05:03:48;;;;;;;0.83;0.53;;;11.20;99.90;;;;;;5078300;28;20473;-91
2023/05/11 05:06:15;;;;;;;0.43;0.43;;;11.20;99.90;;;;;;5078353;28;20450;-91
2023/05/11 05:08:43;;;;;;;2.10;0.50;;;11.30;99.90;;;;;;5078369;28;20437;-91
2023/05/11 05:11:10;;;;;;;1.13;0.40;;;11.30;99.90;;;;;;5078176;28;20449;-91
2023/05/11 05:13:36;;;;;;;0.60;0.60;;;11.20;99.90;;;;;;5077917;28;20457;-91
2023/05/11 05:16:03;;;;;;;0.40;0.40;;;11.30;99.90;;;;;;5084031;28;20437;-92
2023/05/11 05:18:30;;;;;;;3.87;0.80;;;11.30;99.90;;;;;;5087834;28;20448;-90
2023/05/11 05:20:57;;;;;;;0.50;0.50;;;11.30;99.90;;;;;;5085282;28;20438;-91
2023/05/11 05:23:24;;;;;;;0.83;0.50;;;11.30;99.90;;;;;;5085111;28;20504;-90
2023/05/11 05:25:52;;;;;;;0.57;0.57;;;11.30;99.90;;;;;;5084514;28;20440;-91
2023/05/11 05:28:19;;;;;;;0.47;0.43;;;11.30;99.90;;;;;;5080026;28;20441;-90
2023/05/11 05:30:45;;;;;;;0.50;0.47;;;11.30;99.90;;;;;;5079186;28;20494;-91
2023/05/11 05:33:12;;;;;;;0.47;0.47;;;11.40;99.90;;;;;;5077327;28;20977;-91
2023/05/11 05:35:39;;;;;;;0.40;0.40;;;11.50;99.90;;;;;;5077928;28;20449;-91
2023/05/11 05:38:06;;;;;;;0.50;0.50;;;11.40;99.90;;;;;;5077524;28;20464;-91
2023/05/11 05:40:36;;;;;;;0.43;0.43;;;11.40;99.90;;;;;;5077302;28;20434;-91
2023/05/11 05:43:04;;;;;;;0.40;0.30;;;11.40;99.90;;;;;;5077747;28;20465;-91
2023/05/11 05:45:31;;;;;;;0.77;0.40;;;11.50;99.90;;;;;;5077624;28;20810;-91
2023/05/11 05:47:59;;;;;;;0.77;0.77;;;11.50;99.90;;;;;;5077380;28;20457;-91
2023/05/11 05:50:26;;;;;;;1.67;0.80;;;11.60;99.90;;;;;;5077230;28;20857;-91
2023/05/11 05:52:53;;;;;;;1.43;0.50;;;11.60;99.90;;;;;;5077083;28;20481;-91
2023/05/11 05:55:21;;;;;;;0.50;0.50;;;11.70;99.90;;;;;;5077435;28;20507;-91
2023/05/11 05:57:48;;;;;;;0.50;0.40;;;11.80;99.90;;;;;;5077264;28;20869;-91
2023/05/11 06:00:16;;;;;;;0.77;0.70;;;11.90;99.90;;;;;;5077299;28;20475;-91
2023/05/11 06:02:43;;;;;;;0.60;0.40;;;11.90;99.90;;;;;;5076709;28;20488;-91
2023/05/11 06:05:10;;;;;;;0.37;0.33;;;11.90;99.90;;;;;;5076876;28;20445;-91
2023/05/11 06:07:37;;;;;;;0.80;0.40;;;11.90;99.90;;;;;;5076813;28;20937;-91
2023/05/11 06:10:05;;;;;;;0.60;0.47;;;11.90;99.90;;;;;;5075512;28;20575;-91
2023/05/11 06:12:32;;;;;;;0.97;0.77;;;12.00;99.90;;;;;;5076658;28;20462;-91
2023/05/11 06:14:58;;;;;;;0.53;0.50;;;12.00;99.90;;;;;;5077436;28;20454;-91
2023/05/11 06:17:27;;;;;;;1.87;0.63;;;12.00;99.90;;;;;;5076336;28;20808;-91
2023/05/11 06:19:54;;;;;;;8.97;0.60;;;12.00;99.90;;;;;;5076702;28;20445;-91
2023/05/11 06:22:20;;;;;;;0.50;0.40;;;12.10;99.90;;;;;;5076953;28;20465;-91
2023/05/11 06:24:47;;;;;;;0.60;0.60;;;12.10;99.90;;;;;;5076465;28;20450;-91
2023/05/11 06:27:14;;;;;;;2.00;0.50;;;12.20;99.90;;;;;;5076166;28;20449;-91
2023/05/11 06:29:41;;;;;;;0.43;0.33;;;12.20;99.90;;;;;;5076356;28;20485;-90
2023/05/11 06:32:08;;;;;;;0.50;0.50;;;12.30;99.90;;;;;;5076177;28;20519;-90
2023/05/11 06:34:38;;;;;;;0.40;0.40;;;12.30;99.90;;;;;;5076448;28;20453;-89
2023/05/11 06:37:04;;;;;;;0.47;0.47;;;12.30;99.90;;;;;;5077289;28;20442;-90
2023/05/11 06:39:31;;;;;;;0.40;0.40;;;12.40;99.90;;;;;;5076092;28;20831;-90
2023/05/11 06:41:58;;;;;;;0.67;0.67;;;12.40;99.90;;;;;;5076004;28;20448;-90
2023/05/11 06:44:25;;;;;;;0.50;0.50;;;12.40;99.90;;;;;;5076734;28;20430;-90
2023/05/11 06:46:51;;;;;;;0.40;0.40;;;12.40;99.90;;;;;;5076016;28;20442;-90
2023/05/11 06:49:18;;;;;;;2.70;0.40;;;12.40;99.90;;;;;;5076025;28;20972;-90
2023/05/11 06:51:46;;;;;;;0.40;0.40;;;12.40;99.90;;;;;;5076137;28;20450;-90
2023/05/11 06:54:13;;;;;;;0.47;0.47;;;12.40;99.90;;;;;;5076006;28;20453;-91
2023/05/11 06:56:40;;;;;;;0.40;0.40;;;12.30;99.90;;;;;;5075852;28;20449;-90
2023/05/11 06:59:07;;;;;;;0.40;0.40;;;12.30;99.90;;;;;;5075873;28;20457;-90
2023/05/11 07:01:33;;;;;;;0.63;0.60;;;12.40;99.90;;;;;;5075588;28;20465;-90
2023/05/11 07:04:00;;;;;;;0.50;0.40;;;12.40;99.90;;;;;;5075324;28;20474;-90
2023/05/11 07:06:28;;;;;;;0.40;0.40;;;12.40;99.90;;;;;;5075746;28;20460;-90
2023/05/11 07:08:56;;;;;;;1.10;0.40;;;12.40;99.90;;;;;;5075943;28;20455;-90
2023/05/11 07:11:24;;;;;;;0.60;0.30;;;12.40;99.90;;;;;;5075527;28;20489;-89
2023/05/11 07:13:51;;;;;;;0.40;0.40;;;12.30;99.90;;;;;;5075776;28;20473;-90
2023/05/11 07:16:17;;;;;;;0.30;0.30;;;12.30;99.90;;;;;;5075776;28;20446;-90
2023/05/11 07:18:44;;;;;;;0.37;0.33;;;12.30;99.90;;;;;;5075472;28;20453;-89
2023/05/11 07:21:11;;;;;;;0.73;0.50;;;12.30;99.90;;;;;;5075664;28;20453;-89
2023/05/11 07:23:38;;;;;;;0.30;0.30;;;12.30;99.90;;;;;;5075488;28;20477;-89
2023/05/11 07:26:07;;;;;;;0.40;0.40;;;12.40;99.90;;;;;;5075669;28;20450;-90
2023/05/11 07:28:34;;;;;;;0.50;0.40;;;12.30;99.90;;;;;;5075829;28;20449;-89
2023/05/11 07:31:01;;;;;;;0.63;0.50;;;12.30;99.90;;;;;;5075053;28;20491;-89
2023/05/11 07:33:28;;;;;;;0.50;0.50;;;12.40;99.90;;;;;;5074996;28;20462;-89
2023/05/11 07:35:55;;;;;;;4.03;0.50;;;12.40;99.90;;;;;;5075459;28;20458;-89
2023/05/11 07:38:22;;;;;;;0.50;0.40;;;12.40;99.90;;;;;;5075141;28;20454;-90
2023/05/11 07:40:49;;;;;;;0.47;0.47;;;12.40;99.90;;;;;;5075137;28;20453;-89
2023/05/11 07:43:17;;;;;;;0.70;0.50;;;12.40;99.90;;;;;;5074891;28;20833;-89
2023/05/11 07:45:44;;;;;;;0.50;0.30;;;12.40;99.90;;;;;;5074626;28;20964;-90
2023/05/11 07:48:11;;;;;;;0.60;0.60;;;12.40;99.90;;;;;;5074803;28;20968;-89
2023/05/11 07:50:37;;;;;;;0.50;0.40;;;12.40;99.90;;;;;;5074695;28;20477;-89
2023/05/11 07:53:04;;;;;;;0.50;0.50;;;12.30;99.90;;;;;;5074712;28;20475;-89
2023/05/11 07:55:32;;;;;;;0.40;0.40;;;12.30;99.90;;;;;;5074605;28;20449;-89
2023/05/11 07:57:58;;;;;;;0.40;0.40;;;12.20;99.90;;;;;;5074622;28;20449;-89
2023/05/11 08:00:26;;;;;;;0.73;0.70;;;12.20;99.90;;;;;;5074658;28;20786;-88
2023/05/11 08:02:53;;;;;;;0.40;0.40;;;12.20;99.90;;;;;;5074313;28;20492;-89
2023/05/11 08:05:20;;;;;;;0.40;0.40;;;12.20;99.90;;;;;;5074942;28;20453;-89
2023/05/11 08:07:47;;;;;;;0.50;0.50;;;12.20;99.90;;;;;;5074942;28;20529;-89
2023/05/11 08:10:14;;;;;;;0.57;0.57;;;12.20;99.90;;;;;;5074415;28;20481;-89
2023/05/11 08:12:41;;;;;;;0.50;0.50;;;12.30;99.90;;;;;;5074374;28;20837;-88
2023/05/11 08:15:08;;;;;;;0.70;0.40;;;12.30;99.90;;;;;;5074987;28;20457;-89
2023/05/11 08:17:37;;;;;;;0.47;0.40;;;12.30;99.90;;;;;;5074391;28;20454;-89
2023/05/11 08:20:05;;;;;;;0.60;0.40;;;12.40;99.90;;;;;;5073931;28;20955;-86
2023/05/11 08:22:32;;;;;;;0.40;0.40;;;12.40;99.90;;;;;;5074413;28;20833;-89
2023/05/11 08:24:58;;;;;;;0.80;0.60;;;12.40;99.90;;;;;;5074242;28;20441;-88
2023/05/11 08:27:25;;;;;;;0.50;0.50;;;12.50;99.90;;;;;;5074165;28;20434;-89
2023/05/11 08:29:52;;;;;;;0.60;0.40;;;12.50;99.90;;;;;;5074095;28;20483;-89
2023/05/11 08:32:19;;;;;;;0.50;0.50;;;12.60;99.90;;;;;;5077320;28;20469;-88
2023/05/11 08:34:47;;;;;;;0.67;0.47;;;12.60;99.90;;;;;;5080690;28;20456;-88
2023/05/11 08:37:13;;;;;;;0.40;0.40;;;12.70;99.90;;;;;;5080872;28;20449;-88
2023/05/11 08:39:40;;;;;;;0.57;0.40;;;12.70;99.90;;;;;;5080971;28;20901;-89
2023/05/11 08:42:08;;;;;;;0.50;0.50;;;12.70;99.90;;;;;;5080703;28;20984;-89
2023/05/11 08:44:36;;;;;;;0.60;0.60;;;12.80;99.90;;;;;;5080653;28;20440;-88
2023/05/11 08:47:04;;;;;;;0.60;0.60;;;12.80;99.90;;;;;;5081025;28;20477;-89
2023/05/11 08:49:32;;;;;;;2.40;0.73;;;12.80;99.90;;;;;;5080664;28;20932;-88
2023/05/11 08:52:04;;;;;;;0.53;0.50;;;12.80;99.90;;;;;;5081549;28;20473;-89
2023/05/11 08:54:31;;;;;;;0.63;0.50;;;12.90;99.90;;;;;;5081080;28;20917;-90
2023/05/11 08:56:58;;;;;;;3.90;0.60;;;12.80;99.90;;;;;;5080765;28;20461;-88
2023/05/11 08:59:27;;;;;;;1.43;0.57;;;12.90;99.90;;;;;;5080628;28;20460;-88
2023/05/11 09:01:55;;;;;;;2.10;0.60;;;12.80;99.90;;;;;;5080179;28;21004;-88
2023/05/11 09:04:23;;;;;;;0.50;0.50;;;12.80;99.90;;;;;;5082548;28;20941;-88
2023/05/11 09:06:51;;;;;;;1.07;0.60;;;12.90;99.90;;;;;;5080688;28;20449;-89
2023/05/11 09:09:19;;;;;;;0.70;0.60;;;13.00;99.90;;;;;;5080241;28;21125;-88
2023/05/11 09:11:48;;;;;;;0.60;0.60;;;13.10;99.90;;;;;;5080242;28;20469;-88
2023/05/11 09:14:15;;;;;;;1.67;0.53;;;13.10;99.90;;;;;;5080521;28;20452;-89
2023/05/11 09:16:42;;;;;;;0.90;0.60;;;13.10;99.90;;;;;;5080372;28;20448;-88
2023/05/11 09:19:15;;;;;;;0.70;0.63;;;13.00;99.90;;;;;;5080378;28;20433;-89
2023/05/11 09:21:42;;;;;;;0.63;0.63;;;13.00;99.90;;;;;;5080316;28;20799;-89
2023/05/11 09:24:11;;;;;;;0.60;0.60;;;13.10;99.90;;;;;;5080145;28;20991;-88
2023/05/11 09:26:40;;;;;;;0.50;0.47;;;13.20;99.90;;;;;;5080166;28;20522;-88
2023/05/11 09:29:06;;;;;;;0.67;0.60;;;13.20;99.90;;;;;;5080908;28;20449;-88
2023/05/11 09:31:41;;;;;;;1.50;0.60;;;13.20;99.90;;;;;;5079992;28;20472;-88
2023/05/11 09:34:15;;;;;;;0.83;0.47;;;13.30;99.90;;;;;;5080398;28;20492;-88
2023/05/11 09:36:43;;;;;;;2.40;0.53;;;13.30;99.90;;;;;;5080102;28;20838;-88
2023/05/11 09:39:09;;;;;;;0.40;0.30;;;13.40;99.90;;;;;;5080243;28;20452;-88
2023/05/11 09:41:36;;;;;;;2.37;0.47;;;13.40;99.90;;;;;;5080097;28;20445;-89
2023/05/11 09:44:10;;;;;;;0.47;0.47;;;13.50;99.90;;;;;;5078042;28;20833;-88
2023/05/11 09:46:37;;;;;;;0.80;0.50;;;13.50;99.90;;;;;;5076806;28;20503;-88
2023/05/11 09:49:05;;;;;;;0.70;0.60;;;13.50;99.90;;;;;;5076979;28;20801;-89
2023/05/11 09:51:33;;;;;;;0.70;0.43;;;13.50;99.90;;;;;;5076487;28;20491;-86
2023/05/11 09:54:01;;;;;;;1.03;0.50;;;13.50;99.90;;;;;;5076252;28;20469;-89
2023/05/11 09:56:48;;;;;;;1.43;0.60;;;13.50;99.90;;;;;;5076543;28;20437;-91
2023/05/11 09:59:35;;;;;;;0.90;0.43;;;13.50;99.90;;;;;;5076687;28;20467;-89
2023/05/11 10:02:16;;;;;;;0.53;0.50;;;13.50;99.90;;;;;;5076316;28;20480;-89
2023/05/11 10:04:43;;;;;;;0.50;0.50;;;13.40;99.90;;;;;;5076528;28;20418;-88
2023/05/11 10:07:10;;;;;;;0.50;0.50;;;13.40;99.90;;;;;;5076578;28;20453;-88
2023/05/11 10:09:38;;;;;;;1.17;0.70;;;13.40;99.90;;;;;;5076699;28;20441;-89
2023/05/11 10:12:06;;;;;;;0.50;0.50;;;13.40;99.90;;;;;;5076184;28;20904;-90
2023/05/11 10:14:35;;;;;;;0.53;0.47;;;13.50;99.90;;;;;;5076587;28;20454;-89
2023/05/11 10:17:02;;;;;;;0.50;0.50;;;13.60;99.90;;;;;;5076219;28;20460;-88
2023/05/11 10:19:30;;;;;;;0.60;0.40;;;13.60;99.90;;;;;;5075758;28;20457;-85
2023/05/11 10:21:57;;;;;;;0.60;0.60;;;13.60;99.90;;;;;;5075345;28;20964;-86
2023/05/11 10:24:24;;;;;;;0.50;0.40;;;13.60;99.90;;;;;;5075710;28;20789;-85
2023/05/11 10:26:52;;;;;;;0.60;0.50;;;13.60;99.90;;;;;;5075567;28;20433;-86
2023/05/11 10:29:20;;;;;;;0.43;0.43;;;13.60;99.90;;;;;;5075706;28;20454;-86
2023/05/11 10:31:49;;;;;;;0.60;0.50;;;13.50;99.90;;;;;;5075479;28;20470;-86
2023/05/11 10:34:17;;;;;;;0.60;0.60;;;13.60;99.90;;;;;;5075410;28;20479;-86
2023/05/11 10:36:46;;;;;;;0.83;0.53;;;13.60;99.90;;;;;;5075218;28;20937;-86
2023/05/11 10:39:12;;;;;;;0.43;0.40;;;13.70;99.90;;;;;;5075516;28;20796;-86
2023/05/11 10:41:52;;;;;;;0.53;0.37;;;13.70;99.90;;;;;;5075145;28;20448;-86
2023/05/11 10:44:39;;;;;;;0.40;0.40;;;13.80;99.90;;;;;;5075502;28;20513;-86
2023/05/11 10:47:26;;;;;;;0.50;0.37;;;13.80;99.90;;;;;;5075271;28;20440;-87
2023/05/11 10:50:14;;;;;;;0.50;0.30;;;13.90;99.90;;;;;;5075407;28;20445;-87
2023/05/11 10:52:58;;;;;;;0.60;0.50;;;14.00;99.90;;;;;;5075254;28;20848;-87
2023/05/11 10:55:39;;;;;;;1.70;0.63;;;14.00;99.90;;;;;;5074628;28;20421;-87
2023/05/11 10:58:09;;;;;;;0.40;0.40;;;14.10;99.90;;;;;;5074840;28;20921;-86
2023/05/11 11:01:16;;;;;;;0.40;0.30;;;14.20;99.90;;;;;;5075080;28;20430;-86
2023/05/11 11:03:56;;;;;;;0.70;0.40;;;14.30;99.90;;;;;;5075065;28;20505;-86
2023/05/11 11:06:24;;;;;;;9.60;0.57;;;14.40;99.90;;;;;;5074932;28;20978;-86
2023/05/11 11:08:58;;;;;;;0.50;0.50;;;14.40;99.90;;;;;;5074492;28;20933;-86
2023/05/11 11:11:33;;;;;;;0.37;0.30;;;14.40;99.90;;;;;;5074738;28;20512;-86
2023/05/11 11:14:04;;;;;;;0.50;0.47;;;14.50;99.90;;;;;;5074344;28;20993;-86
2023/05/11 11:16:32;;;;;;;0.40;0.40;;;14.60;99.90;;;;;;5074809;28;20469;-86
2023/05/11 11:19:37;;;;;;;0.50;0.40;;;14.60;99.90;;;;;;5074548;28;20449;-86
2023/05/11 11:22:04;;;;;;;0.80;0.60;;;14.50;99.90;;;;;;5065179;28;20445;-88
2023/05/11 11:24:52;;;;;;;0.40;0.40;;;14.50;99.90;;;;;;5074783;28;20444;-87
2023/05/11 11:27:18;;;;;;;0.50;0.50;;;14.40;99.90;;;;;;5069446;28;20472;-87
2023/05/11 11:30:17;;;;;;;0.60;0.40;;;14.40;99.90;;;;;;5074699;28;20446;-87
2023/05/11 11:32:44;;;;;;;0.50;0.40;;;14.30;99.90;;;;;;5074171;28;20477;-87
2023/05/11 11:35:44;;;;;;;0.60;0.47;;;14.30;99.90;;;;;;5074220;28;20449;-86
2023/05/11 11:38:15;;;;;;;0.40;0.30;;;14.40;99.90;;;;;;5074594;28;20483;-87
2023/05/11 11:40:43;;;;;;;1.53;0.40;;;14.40;99.90;;;;;;5074475;28;20799;-87
2023/05/11 11:43:15;;;;;;;0.43;0.40;;;14.30;99.90;;;;;;5074274;28;21007;-86
2023/05/11 11:45:51;;;;;;;0.40;0.40;;;14.30;99.90;;;;;;5074385;28;20443;-87
2023/05/11 11:48:21;;;;;;;0.40;0.40;;;14.40;99.90;;;;;;5074267;28;20468;-86
2023/05/11 11:51:00;;;;;;;0.47;0.40;;;14.50;99.90;;;;;;5074188;28;20426;-86
2023/05/11 11:54:04;;;;;;;0.43;0.43;;;14.50;99.90;;;;;;5073962;28;20497;-86
2023/05/11 11:56:40;;;;;;;0.40;0.40;;;14.60;99.90;;;;;;5074166;28;20405;-86
2023/05/11 11:59:09;;;;;;;0.47;0.47;;;14.50;99.90;;;;;;5073894;28;20445;-86
2023/05/11 12:01:37;;;;;;;0.40;0.40;;;14.50;99.90;;;;;;5073803;28;20572;-86
2023/05/11 12:04:39;;;;;;;1.07;0.40;;;14.50;99.90;;;;;;5073393;28;20981;-86
2023/05/11 12:07:10;;;;;;;1.40;0.40;;;14.50;99.90;;;;;;5073562;28;20448;-85
2023/05/11 12:09:39;;;;;;;0.43;0.40;;;14.50;99.90;;;;;;5073387;28;20456;-85
2023/05/11 12:12:09;;;;;;;0.50;0.47;;;14.60;99.90;;;;;;5073235;28;20931;-86
2023/05/11 12:14:36;;;;;;;0.40;0.33;;;14.50;99.90;;;;;;5073454;28;20441;-85
2023/05/11 12:17:07;;;;;;;0.40;0.40;;;14.50;99.90;;;;;;5073727;28;20430;-86
2023/05/11 12:19:34;;;;;;;0.30;0.30;;;14.50;99.90;;;;;;5073580;28;20524;-86
2023/05/11 12:22:01;;;;;;;0.40;0.40;;;14.60;99.90;;;;;;5073780;28;20453;-86
2023/05/11 12:24:28;;;;;;;0.90;0.50;;;14.70;99.90;;;;;;5073320;28;20454;-86
2023/05/11 12:26:58;;;;;;;0.47;0.40;;;14.60;99.90;;;;;;5073966;28;20461;-87
2023/05/11 12:29:26;;;;;;;4.10;0.50;;;14.70;99.90;;;;;;5073355;28;20511;-85
2023/05/11 12:31:53;;;;;;;1.93;0.40;;;14.70;99.90;;;;;;5073213;28;20490;-84
2023/05/11 12:34:21;;;;;;;0.30;0.30;;;14.80;99.90;;;;;;5073449;28;20809;-84
2023/05/11 12:36:49;;;;;;;0.50;0.30;;;14.90;99.90;;;;;;5073645;28;20436;-85
2023/05/11 12:39:19;;;;;;;1.90;0.40;;;15.00;99.90;;;;;;5073241;28;20441;-85
2023/05/11 12:41:48;;;;;;;0.47;0.47;;;15.00;99.90;;;;;;5074029;28;20521;-85
2023/05/11 12:44:16;;;;;;;0.60;0.47;;;15.10;99.90;;;;;;5074111;28;20449;-85
2023/05/11 12:46:46;;;;;;;0.40;0.40;;;15.10;99.90;;;;;;5072916;28;20940;-85
2023/05/11 12:49:17;;;;;;;0.40;0.40;;;15.20;99.90;;;;;;5073059;28;20425;-84
2023/05/11 12:51:48;;;;;;;0.30;0.30;;;15.20;99.90;;;;;;5073297;28;20484;-85
2023/05/11 12:54:26;;;;;;;2.20;0.47;;;15.20;99.90;;;;;;5073363;28;20457;-85
2023/05/11 12:56:53;;;;;;;0.40;0.40;;;15.20;99.90;;;;;;5073380;28;20441;-88
2023/05/11 12:59:34;;;;;;;0.40;0.40;;;15.20;99.90;;;;;;5073145;28;20565;-86